createdAt,value
2022-12-08T00:02:12.113Z,14.50
2022-12-08T00:04:38.940Z,15.02
2022-12-08T00:07:05.389Z,14.78
2022-12-08T00:09:39.520Z,15.26
2022-12-08T00:12:07.823Z,14.96
2022-12-08T00:14:38.535Z,14.61
2022-12-08T00:17:07.047Z,15.20
2022-12-08T00:19:34.044Z,15.21
2022-12-08T00:22:00.577Z,15.37
2022-12-08T00:24:32.444Z,14.39
2022-12-08T00:26:58.905Z,14.61
2022-12-08T00:29:25.436Z,15.40
2022-12-08T00:31:52.440Z,15.36
2022-12-08T00:34:20.078Z,15.24
2022-12-08T00:36:47.123Z,15.08
2022-12-08T00:39:15.271Z,15.58
2022-12-08T00:41:41.824Z,15.22
2022-12-08T00:44:09.981Z,14.97
2022-12-08T00:46:37.016Z,15.71
2022-12-08T00:49:05.601Z,15.39
2022-12-08T00:51:33.163Z,15.53
2022-12-08T00:53:59.975Z,15.11
2022-12-08T00:56:27.504Z,15.45
2022-12-08T00:58:54.461Z,15.55
2022-12-08T01:01:21.165Z,15.56
2022-12-08T01:03:48.088Z,15.56
2022-12-08T01:06:14.663Z,15.65
2022-12-08T01:08:41.869Z,16.02
2022-12-08T01:11:17.550Z,15.83
2022-12-08T01:13:44.480Z,15.80
2022-12-08T01:16:29.250Z,16.30
2022-12-08T01:18:57.625Z,15.92
2022-12-08T01:21:25.646Z,16.09
2022-12-08T01:23:52.318Z,16.68
2022-12-08T01:26:19.799Z,17.06
2022-12-08T01:28:47.501Z,16.77
2022-12-08T01:31:17.365Z,16.65
2022-12-08T01:33:45.378Z,17.22
2022-12-08T01:36:24.461Z,17.09
2022-12-08T01:38:52.394Z,17.29
2022-12-08T01:41:23.733Z,17.94
2022-12-08T01:44:08.252Z,17.27
2022-12-08T01:46:37.904Z,18.20
2022-12-08T01:49:32.892Z,17.06
2022-12-08T01:52:10.810Z,17.48
2022-12-08T01:54:44.706Z,16.76
2022-12-08T01:57:18.540Z,17.58
2022-12-08T01:59:52.988Z,17.03
2022-12-08T02:02:19.537Z,16.86
2022-12-08T02:04:46.041Z,17.65
2022-12-08T02:07:16.223Z,17.64
2022-12-08T02:09:44.017Z,17.32
2022-12-08T02:12:11.799Z,17.67
2022-12-08T02:14:38.929Z,17.48
2022-12-08T02:17:26.624Z,18.11
2022-12-08T02:20:18.491Z,17.69
2022-12-08T02:22:57.111Z,18.02
2022-12-08T02:25:36.232Z,18.10
2022-12-08T02:28:27.445Z,18.24
2022-12-08T02:31:20.453Z,18.89
2022-12-08T02:34:14.781Z,18.27
2022-12-08T02:37:08.180Z,19.24
2022-12-08T02:39:57.991Z,19.13
2022-12-08T02:42:30.616Z,18.79
2022-12-08T02:45:24.664Z,18.93
2022-12-08T02:47:52.453Z,18.32
2022-12-08T02:50:19.352Z,18.84
2022-12-08T02:52:47.656Z,18.85
2022-12-08T02:55:30.547Z,18.52
2022-12-08T02:58:06.135Z,18.91
2022-12-08T03:01:10.955Z,18.95
2022-12-08T03:03:46.633Z,18.56
2022-12-08T03:06:42.644Z,19.29
2022-12-08T03:09:30.560Z,18.26
2022-12-08T03:12:41.583Z,19.29
2022-12-08T03:15:14.158Z,18.86
2022-12-08T03:17:47.157Z,18.55
2022-12-08T03:20:20.583Z,19.47
2022-12-08T03:22:51.689Z,19.16
2022-12-08T03:25:22.676Z,19.02
2022-12-08T03:27:51.433Z,19.09
2022-12-08T03:30:18.589Z,19.21
2022-12-08T03:33:01.515Z,19.03
2022-12-08T03:35:33.046Z,19.28
2022-12-08T03:38:12.050Z,19.28
2022-12-08T03:40:39.676Z,19.44
2022-12-08T03:43:06.212Z,19.69
2022-12-08T03:45:33.098Z,19.40
2022-12-08T03:47:59.583Z,19.19
2022-12-08T03:50:26.425Z,19.30
2022-12-08T03:52:52.900Z,19.28
2022-12-08T03:55:19.665Z,19.33
2022-12-08T03:57:46.197Z,19.30
2022-12-08T04:00:15.719Z,19.25
2022-12-08T04:02:42.402Z,19.30
2022-12-08T04:05:09.035Z,19.41
2022-12-08T04:07:35.606Z,19.58
2022-12-08T04:10:02.529Z,18.80
2022-12-08T04:12:35.259Z,19.45
2022-12-08T04:15:08.670Z,19.33
2022-12-08T04:17:55.166Z,19.02
2022-12-08T04:20:21.771Z,19.26
2022-12-08T04:22:48.272Z,18.49
2022-12-08T04:25:15.117Z,18.74
2022-12-08T04:27:41.627Z,18.64
2022-12-08T04:30:08.661Z,18.79
2022-12-08T04:32:35.208Z,18.69
2022-12-08T04:35:01.675Z,19.42
2022-12-08T04:37:28.565Z,19.81
2022-12-08T04:39:55.109Z,19.49
2022-12-08T04:42:21.565Z,20.20
2022-12-08T04:44:48.060Z,20.08
2022-12-08T04:47:14.577Z,19.51
2022-12-08T04:49:41.197Z,18.99
2022-12-08T04:52:07.657Z,19.22
2022-12-08T04:54:34.335Z,19.75
2022-12-08T04:57:00.801Z,20.55
2022-12-08T04:59:27.306Z,19.91
2022-12-08T05:01:53.998Z,19.97
2022-12-08T05:04:20.551Z,19.53
2022-12-08T05:06:47.172Z,19.88
2022-12-08T05:09:13.602Z,19.18
2022-12-08T05:11:42.735Z,19.80
2022-12-08T05:14:15.523Z,20.33
2022-12-08T05:16:43.109Z,20.94
2022-12-08T05:19:10.191Z,20.88
2022-12-08T05:21:36.686Z,20.50
2022-12-08T05:24:03.386Z,21.08
2022-12-08T05:26:30.388Z,21.28
2022-12-08T05:28:56.872Z,21.16
2022-12-08T05:31:23.600Z,21.28
2022-12-08T05:33:51.673Z,21.46
2022-12-08T05:36:19.284Z,21.03
2022-12-08T05:38:46.925Z,22.23
2022-12-08T05:41:17.672Z,21.77
2022-12-08T05:43:44.734Z,21.84
2022-12-08T05:46:12.009Z,21.97
2022-12-08T05:48:38.553Z,22.12
2022-12-08T05:51:07.559Z,21.41
2022-12-08T05:53:34.171Z,21.71
2022-12-08T05:56:00.798Z,22.04
2022-12-08T05:58:27.257Z,22.04
2022-12-08T06:00:53.732Z,21.87
2022-12-08T06:03:20.272Z,21.40
2022-12-08T06:05:47.399Z,21.18
2022-12-08T06:08:14.062Z,21.15
2022-12-08T06:10:42.889Z,21.24
2022-12-08T06:13:09.441Z,21.24
2022-12-08T06:15:37.174Z,20.46
2022-12-08T06:18:04.578Z,20.49
2022-12-08T06:20:31.354Z,19.84
2022-12-08T06:22:58.037Z,19.56
2022-12-08T06:25:24.927Z,19.28
2022-12-08T06:27:51.627Z,19.75
2022-12-08T06:30:18.419Z,19.12
2022-12-08T06:32:44.918Z,19.12
2022-12-08T06:35:11.390Z,19.37
2022-12-08T06:37:37.910Z,18.17
2022-12-08T06:40:04.968Z,17.77
2022-12-08T06:42:31.643Z,18.33
2022-12-08T06:44:58.318Z,18.36
2022-12-08T06:47:26.450Z,18.45
2022-12-08T06:49:53.175Z,18.70
2022-12-08T06:52:19.780Z,17.92
2022-12-08T06:54:46.278Z,18.67
2022-12-08T06:57:12.808Z,17.75
2022-12-08T06:59:39.376Z,18.04
2022-12-08T07:02:06.055Z,17.95
2022-12-08T07:04:32.611Z,18.48
2022-12-08T07:06:59.085Z,18.31
2022-12-08T07:09:25.613Z,17.99
2022-12-08T07:11:52.146Z,17.80
2022-12-08T07:14:18.641Z,17.93
2022-12-08T07:16:45.177Z,17.22
2022-12-08T07:19:11.726Z,17.28
2022-12-08T07:21:38.241Z,17.04
2022-12-08T07:24:05.086Z,17.39
2022-12-08T07:26:31.545Z,17.62
2022-12-08T07:28:59.764Z,17.50
2022-12-08T07:31:27.581Z,17.21
2022-12-08T07:33:56.029Z,16.43
2022-12-08T07:36:23.765Z,16.80
2022-12-08T07:38:51.442Z,17.35
2022-12-08T07:41:24.852Z,18.22
2022-12-08T07:43:52.576Z,18.56
2022-12-08T07:46:21.757Z,18.71
2022-12-08T07:48:48.320Z,17.69
2022-12-08T07:51:16.679Z,17.40
2022-12-08T07:53:51.574Z,17.85
2022-12-08T07:56:20.301Z,17.43
2022-12-08T07:58:47.063Z,17.24
2022-12-08T08:01:26.551Z,17.15
2022-12-08T08:03:54.911Z,18.29
2022-12-08T08:06:21.414Z,17.90
2022-12-08T08:08:48.449Z,18.39
2022-12-08T08:11:20.760Z,17.01
2022-12-08T08:13:49.047Z,17.14
2022-12-08T08:16:15.975Z,17.04
2022-12-08T08:18:43.124Z,17.56
2022-12-08T08:21:43.143Z,18.42
2022-12-08T08:23:56.207Z,17.71
2022-12-08T08:26:23.409Z,17.35
2022-12-08T08:28:49.914Z,17.76
2022-12-08T08:31:16.548Z,17.84
2022-12-08T08:33:43.099Z,17.61
2022-12-08T08:36:10.060Z,17.66
2022-12-08T08:38:36.938Z,18.00
2022-12-08T08:41:07.939Z,18.47
2022-12-08T08:43:38.136Z,18.07
2022-12-08T08:46:05.781Z,17.53
2022-12-08T08:48:33.001Z,17.80
2022-12-08T08:51:07.742Z,17.48
2022-12-08T08:53:34.334Z,16.44
2022-12-08T08:56:02.699Z,16.56
2022-12-08T08:58:29.616Z,16.75
2022-12-08T09:00:56.172Z,16.16
2022-12-08T09:03:22.813Z,16.12
2022-12-08T09:05:50.534Z,16.13
2022-12-08T09:08:17.385Z,15.19
2022-12-08T09:10:44.052Z,14.48
2022-12-08T09:13:10.878Z,15.77
2022-12-08T09:15:37.515Z,19.13
2022-12-08T09:18:04.437Z,19.20
2022-12-08T09:20:30.973Z,20.30
2022-12-08T09:22:57.536Z,20.22
2022-12-08T09:25:24.103Z,20.74
2022-12-08T09:27:50.663Z,21.15
2022-12-08T09:30:17.452Z,20.91
2022-12-08T09:32:44.002Z,20.15
2022-12-08T09:35:10.526Z,20.72
2022-12-08T09:37:37.066Z,20.40
2022-12-08T09:40:05.416Z,20.24
2022-12-08T09:42:59.108Z,20.69
2022-12-08T09:45:33.367Z,18.99
2022-12-08T09:48:11.562Z,19.67
2022-12-08T09:50:45.248Z,20.47
2022-12-08T09:53:35.646Z,20.08
2022-12-08T09:56:15.101Z,21.36
2022-12-08T09:59:21.072Z,20.59
2022-12-08T10:01:47.900Z,20.73
2022-12-08T10:04:22.034Z,19.78
2022-12-08T10:07:17.271Z,19.95
2022-12-08T10:10:08.367Z,19.77
2022-12-08T10:12:58.407Z,20.24
2022-12-08T10:15:43.760Z,21.09
2022-12-08T10:18:17.955Z,20.37
2022-12-08T10:20:47.888Z,21.55
2022-12-08T10:23:38.235Z,21.27
2022-12-08T10:26:08.968Z,20.60
2022-12-08T10:28:38.819Z,20.19
2022-12-08T10:31:22.385Z,20.76
2022-12-08T10:33:57.456Z,20.73
2022-12-08T10:36:44.555Z,22.06
2022-12-08T10:39:35.153Z,19.89
2022-12-08T10:42:08.616Z,20.93
2022-12-08T10:44:57.760Z,20.87
2022-12-08T10:47:27.370Z,20.97
2022-12-08T10:50:29.442Z,19.90
2022-12-08T10:53:26.167Z,19.91
2022-12-08T10:56:01.755Z,19.94
2022-12-08T10:58:30.166Z,19.74
2022-12-08T11:01:18.693Z,19.17
2022-12-08T11:04:04.754Z,20.08
2022-12-08T11:06:33.952Z,20.85
2022-12-08T11:09:05.265Z,20.62
2022-12-08T11:11:45.021Z,20.51
2022-12-08T11:14:27.473Z,20.42
2022-12-08T11:17:08.273Z,20.39
2022-12-08T11:19:40.584Z,21.78
2022-12-08T11:22:27.449Z,20.54
2022-12-08T11:25:03.637Z,20.12
2022-12-08T11:27:33.232Z,20.00
2022-12-08T11:30:01.813Z,20.20
2022-12-08T11:32:28.634Z,20.20
2022-12-08T11:35:05.305Z,19.52
2022-12-08T11:37:38.998Z,20.77
2022-12-08T11:40:20.078Z,20.70
2022-12-08T11:42:58.562Z,20.94
2022-12-08T11:45:32.819Z,21.10
2022-12-08T11:48:09.754Z,21.47
2022-12-08T11:50:50.455Z,23.91
2022-12-08T11:53:22.825Z,21.23
2022-12-08T11:55:57.857Z,20.67
2022-12-08T11:58:46.420Z,20.48
2022-12-08T12:01:20.293Z,19.97
2022-12-08T12:04:09.577Z,20.37
2022-12-08T12:07:07.534Z,21.22
2022-12-08T12:09:55.857Z,20.18
2022-12-08T12:13:16.800Z,20.30
2022-12-08T12:16:15.040Z,21.31
2022-12-08T12:18:44.214Z,22.13
2022-12-08T12:21:14.949Z,22.10
2022-12-08T12:23:55.486Z,20.72
2022-12-08T12:26:29.491Z,21.27
2022-12-08T12:29:07.512Z,20.96
2022-12-08T12:31:42.282Z,20.36
2022-12-08T12:34:25.607Z,19.92
2022-12-08T12:37:12.770Z,20.72
2022-12-08T12:40:03.455Z,19.67
2022-12-08T12:42:46.839Z,19.84
2022-12-08T12:45:15.946Z,20.10
2022-12-08T12:48:13.074Z,19.76
2022-12-08T12:50:39.484Z,19.05
2022-12-08T12:53:17.999Z,18.88
2022-12-08T12:55:53.509Z,19.96
2022-12-08T12:58:35.826Z,19.08
2022-12-08T13:01:08.318Z,18.55
2022-12-08T13:03:35.357Z,18.59
2022-12-08T13:06:02.696Z,19.35
2022-12-08T13:08:30.639Z,18.47
2022-12-08T13:11:09.929Z,18.29
2022-12-08T13:14:00.044Z,18.77
2022-12-08T13:16:36.603Z,18.95
2022-12-08T13:19:15.837Z,18.97
2022-12-08T13:21:42.676Z,19.23
2022-12-08T13:24:27.002Z,18.42
2022-12-08T13:27:05.664Z,19.18
2022-12-08T13:29:33.615Z,18.59
2022-12-08T13:32:30.695Z,17.78
2022-12-08T13:35:04.974Z,17.49
2022-12-08T13:37:54.002Z,17.37
2022-12-08T13:40:25.697Z,17.65
2022-12-08T13:43:26.304Z,17.44
2022-12-08T13:46:57.878Z,17.00
2022-12-08T13:57:30.402Z,15.38
2022-12-08T14:00:02.488Z,15.33
2022-12-08T14:02:47.470Z,15.51
2022-12-08T14:05:19.108Z,14.94
2022-12-08T14:07:51.824Z,15.65
2022-12-08T14:10:31.248Z,15.24
2022-12-08T14:13:05.356Z,16.29
2022-12-08T14:15:37.760Z,16.47
2022-12-08T14:18:06.731Z,15.34
2022-12-08T14:20:57.702Z,16.14
2022-12-08T14:23:22.051Z,16.96
2022-12-08T14:25:48.889Z,16.96
2022-12-08T14:28:16.306Z,17.14
2022-12-08T14:30:42.914Z,17.43
2022-12-08T14:33:15.881Z,17.08
2022-12-08T14:35:42.653Z,16.69
2022-12-08T14:38:18.217Z,16.10
2022-12-08T14:40:47.979Z,17.15
2022-12-08T14:43:20.638Z,17.94
2022-12-08T14:45:50.045Z,17.42
2022-12-08T14:48:25.679Z,17.25
2022-12-08T14:51:01.332Z,16.30
2022-12-08T14:53:43.561Z,16.44
2022-12-08T14:56:32.856Z,16.58
2022-12-08T14:59:20.449Z,16.71
2022-12-08T15:01:50.559Z,15.25
2022-12-08T15:04:25.770Z,15.36
2022-12-08T15:07:18.585Z,15.11
2022-12-08T15:09:48.524Z,16.80
2022-12-08T15:12:14.960Z,15.87
2022-12-08T15:15:14.239Z,16.40
2022-12-08T15:17:42.094Z,16.23
2022-12-08T15:20:35.494Z,16.33
2022-12-08T15:23:02.602Z,16.91
2022-12-08T15:25:29.248Z,16.47
2022-12-08T15:27:55.747Z,17.65
2022-12-08T15:30:22.383Z,17.05
2022-12-08T15:32:48.985Z,16.08
2022-12-08T15:35:16.901Z,15.88
2022-12-08T15:37:43.429Z,16.45
2022-12-08T15:40:17.533Z,16.98
2022-12-08T15:42:44.334Z,15.86
2022-12-08T15:45:15.985Z,17.66
2022-12-08T15:47:44.813Z,16.19
2022-12-08T15:50:17.310Z,15.41
2022-12-08T15:52:43.821Z,15.61
2022-12-08T15:55:19.326Z,15.85
2022-12-08T15:58:51.770Z,17.06
2022-12-08T16:00:54.301Z,17.39
2022-12-08T16:09:13.809Z,17.39
2022-12-08T16:12:05.155Z,17.05
2022-12-08T16:15:39.844Z,17.60
2022-12-08T16:17:17.971Z,18.70
2022-12-08T16:19:45.684Z,18.00
2022-12-08T16:22:51.681Z,18.44
2022-12-08T16:25:17.728Z,18.64
2022-12-08T16:28:17.385Z,18.40
2022-12-08T16:30:33.462Z,19.91
2022-12-08T16:32:59.917Z,18.54
2022-12-08T16:35:26.437Z,18.80
2022-12-08T16:37:53.174Z,19.79
2022-12-08T16:40:19.920Z,19.24
2022-12-08T16:42:46.691Z,19.42
2022-12-08T16:45:22.202Z,19.04
2022-12-08T16:47:53.755Z,18.65
2022-12-08T16:50:22.090Z,18.13
2022-12-08T16:52:55.372Z,17.77
2022-12-08T16:55:22.073Z,18.21
2022-12-08T16:57:48.607Z,18.91
2022-12-08T17:00:19.103Z,19.17
2022-12-08T17:02:46.276Z,19.59
2022-12-08T17:05:15.025Z,20.17
2022-12-08T17:07:44.036Z,20.94
2022-12-08T17:10:14.511Z,20.47
2022-12-08T17:12:41.501Z,20.01
2022-12-08T17:15:11.789Z,19.52
2022-12-08T17:17:38.905Z,19.94
2022-12-08T17:20:08.485Z,20.33
2022-12-08T17:22:36.037Z,19.82
2022-12-08T17:25:03.362Z,19.96
2022-12-08T17:27:29.912Z,20.23
2022-12-08T17:29:56.575Z,19.97
2022-12-08T17:32:23.862Z,20.38
2022-12-08T17:34:50.686Z,19.71
2022-12-08T17:37:18.495Z,20.23
2022-12-08T17:39:45.564Z,20.30
2022-12-08T17:42:12.061Z,20.35
2022-12-08T17:44:38.583Z,20.38
2022-12-08T17:47:05.476Z,20.31
2022-12-08T17:49:32.336Z,19.98
2022-12-08T17:52:02.191Z,20.46
2022-12-08T17:54:29.231Z,20.90
2022-12-08T17:56:56.474Z,20.55
2022-12-08T17:59:22.951Z,21.51
2022-12-08T18:01:52.229Z,21.91
2022-12-08T18:04:18.772Z,21.42
2022-12-08T18:06:45.669Z,20.99
2022-12-08T18:09:13.250Z,21.38
2022-12-08T18:11:40.014Z,21.13
2022-12-08T18:14:07.845Z,20.44
2022-12-08T18:16:34.709Z,21.76
2022-12-08T18:19:01.234Z,23.40
2022-12-08T18:21:28.311Z,22.95
2022-12-08T18:23:54.795Z,24.65
2022-12-08T18:26:21.246Z,22.52
2022-12-08T18:28:47.995Z,24.70
2022-12-08T18:31:18.673Z,24.52
2022-12-08T18:33:47.103Z,23.51
2022-12-08T18:36:19.903Z,23.05
2022-12-08T18:38:47.272Z,22.73
2022-12-08T18:41:18.036Z,22.85
2022-12-08T18:43:45.190Z,22.50
2022-12-08T18:46:14.224Z,23.12
2022-12-08T18:48:43.813Z,23.03
2022-12-08T18:51:21.725Z,22.16
2022-12-08T18:53:49.220Z,21.78
2022-12-08T18:56:28.172Z,22.23
2022-12-08T18:59:01.488Z,23.27
2022-12-08T19:01:30.397Z,23.30
2022-12-08T19:04:26.647Z,22.76
2022-12-08T19:06:45.552Z,22.99
2022-12-08T19:09:12.336Z,23.05
2022-12-08T19:11:38.910Z,22.44
2022-12-08T19:14:05.382Z,22.22
2022-12-08T19:16:31.961Z,22.42
2022-12-08T19:18:58.983Z,22.70
2022-12-08T19:21:25.810Z,23.40
2022-12-08T19:23:52.983Z,23.82
2022-12-08T19:26:20.317Z,23.81
2022-12-08T19:28:47.612Z,24.62
2022-12-08T19:31:14.456Z,24.17
2022-12-08T19:33:41.028Z,23.39
2022-12-08T19:36:12.080Z,24.12
2022-12-08T19:38:38.649Z,24.34
2022-12-08T19:41:05.309Z,23.19
2022-12-08T19:43:31.760Z,23.22
2022-12-08T19:45:58.425Z,22.16
2022-12-08T19:48:25.119Z,23.24
2022-12-08T19:50:51.617Z,24.54
2022-12-08T19:53:18.219Z,24.33
2022-12-08T19:55:44.853Z,24.87
2022-12-08T19:58:11.404Z,25.21
2022-12-08T20:00:39.223Z,24.05
2022-12-08T20:03:06.398Z,23.80
2022-12-08T20:05:36.107Z,22.57
2022-12-08T20:08:02.671Z,22.43
2022-12-08T20:10:32.720Z,22.69
2022-12-08T20:13:00.481Z,22.73
2022-12-08T20:15:26.987Z,24.12
2022-12-08T20:17:53.499Z,23.59
2022-12-08T20:20:19.972Z,23.81
2022-12-08T20:22:46.521Z,23.79
2022-12-08T20:25:13.538Z,22.35
2022-12-08T20:27:40.896Z,22.44
2022-12-08T20:30:13.327Z,23.14
2022-12-08T20:32:43.233Z,22.84
2022-12-08T20:35:09.770Z,23.35
2022-12-08T20:37:36.241Z,26.21
2022-12-08T20:40:03.639Z,26.83
2022-12-08T20:42:30.153Z,24.41
2022-12-08T20:44:56.651Z,23.78
2022-12-08T20:47:23.332Z,23.70
2022-12-08T20:49:49.937Z,23.45
2022-12-08T20:52:16.571Z,23.18
2022-12-08T20:54:43.156Z,22.69
2022-12-08T20:57:09.879Z,22.85
2022-12-08T20:59:36.369Z,23.21
2022-12-08T21:02:03.248Z,23.60
2022-12-08T21:04:30.275Z,23.77
2022-12-08T21:06:56.975Z,23.52
2022-12-08T21:09:23.690Z,24.36
2022-12-08T21:11:50.414Z,24.01
2022-12-08T21:14:16.888Z,23.50
2022-12-08T21:16:43.733Z,22.92
2022-12-08T21:19:11.630Z,23.58
2022-12-08T21:21:38.258Z,22.66
2022-12-08T21:24:05.189Z,20.94
2022-12-08T21:26:31.841Z,20.56
2022-12-08T21:28:58.478Z,19.92
2022-12-08T21:31:25.417Z,20.94
2022-12-08T21:33:52.327Z,20.05
2022-12-08T21:36:21.347Z,20.86
2022-12-08T21:38:48.715Z,21.95
2022-12-08T21:41:18.325Z,22.07
2022-12-08T21:43:45.005Z,22.40
2022-12-08T21:46:16.037Z,22.43
2022-12-08T21:48:42.819Z,23.52
2022-12-08T21:51:09.669Z,31.03
2022-12-08T21:53:36.474Z,25.18
2022-12-08T21:56:08.891Z,24.27
2022-12-08T21:58:35.691Z,23.70
2022-12-08T22:01:06.897Z,23.80
2022-12-08T22:03:33.877Z,23.17
2022-12-08T22:06:10.518Z,23.91
2022-12-08T22:08:37.160Z,23.35
2022-12-08T22:11:04.879Z,23.23
2022-12-08T22:13:34.666Z,23.52
2022-12-08T22:16:04.805Z,23.50
2022-12-08T22:18:32.278Z,24.57
2022-12-08T22:20:58.908Z,23.64
2022-12-08T22:23:25.759Z,23.81
2022-12-08T22:25:59.656Z,23.49
2022-12-08T22:28:27.545Z,23.87
2022-12-08T22:30:54.328Z,23.83
2022-12-08T22:33:21.141Z,24.08
2022-12-08T22:36:08.348Z,24.27
2022-12-08T22:38:37.082Z,24.81
2022-12-08T22:41:04.901Z,24.35
2022-12-08T22:43:31.434Z,24.35
2022-12-08T22:45:57.991Z,24.93
2022-12-08T22:48:24.843Z,24.49
2022-12-08T22:50:51.561Z,24.49
2022-12-08T22:53:17.999Z,24.61
2022-12-08T22:55:44.735Z,24.78
2022-12-08T22:58:12.302Z,25.09
2022-12-08T23:00:39.538Z,25.30
2022-12-08T23:03:06.904Z,25.18
2022-12-08T23:05:38.885Z,25.80
2022-12-08T23:08:07.327Z,25.62
2022-12-08T23:10:35.830Z,26.56
2022-12-08T23:13:04.149Z,26.34
2022-12-08T23:15:32.108Z,25.78
2022-12-08T23:17:58.804Z,25.97
2022-12-08T23:20:25.430Z,26.39
2022-12-08T23:22:51.961Z,26.85
2022-12-08T23:25:18.625Z,26.82
2022-12-08T23:27:46.252Z,26.04
2022-12-08T23:30:13.704Z,27.37
2022-12-08T23:32:40.872Z,26.53
2022-12-08T23:35:08.503Z,27.12
2022-12-08T23:37:35.544Z,27.53
2022-12-08T23:40:02.093Z,29.15
2022-12-08T23:42:29.548Z,38.47
2022-12-08T23:44:56.117Z,29.60
2022-12-08T23:47:22.725Z,27.73
2022-12-08T23:49:49.261Z,26.38
2022-12-08T23:52:16.026Z,26.25
2022-12-08T23:54:42.540Z,26.12
2022-12-08T23:57:09.029Z,26.00
2022-12-08T23:59:35.487Z,25.73
